Monday, February 18, 2019, 5:20 AM EST
Back to Local

KBTV, Burlington International

Location: South Burlington, VT, United States Lat: 44.467
Local Time: 5:20 AM EST (10:20 GMT) Lon: -73.15
Time Zone: US/Eastern Elev: 334 ft

Show me the last for .
Show Decoded

2019-02-18 04:54 METAR KBTV 180954Z 34004KT 10SM SCT065 OVC080 M12/M16 A2994 RMK AO2 SLP147
                 T11171161 =
2019-02-18 03:54 METAR KBTV 180854Z 32005KT 10SM BKN048 OVC070 M12/M16 A2996 RMK AO2 SLP151
                 T11171161 58011 =
2019-02-18 02:54 METAR KBTV 180754Z 34005KT 10SM OVC090 M12/M17 A2997 RMK AO2 SLP156 T11171167 =
2019-02-18 01:54 METAR KBTV 180654Z 30004KT 10SM OVC090 M11/M16 A2999 RMK AO2 SLP162 T11111161 =
2019-02-18 00:54 METAR KBTV 180554Z 35004KT 10SM OVC095 M11/M17 A2999 RMK AO2 SLP163 T11111167
                 11094 21117 58018 =
2019-02-17 23:54 METAR KBTV 180454Z 35003KT 10SM SCT085 OVC100 M11/M17 A3002 RMK AO2 SLP174 LAST
                 T11111167 410671128 =
2019-02-17 22:54 METAR KBTV 180354Z 32003KT 10SM OVC110 M11/M17 A3005 RMK AO2 SLP183 T11111167 =
2019-02-17 21:54 METAR KBTV 180254Z 30004KT 10SM BKN120 M11/M17 A3005 RMK AO2 SLP181 T11061167
                 56014 =
2019-02-17 20:54 METAR KBTV 180154Z 33004KT 10SM SCT230 M11/M17 A3005 RMK AO2 SLP184 T11061167 =
2019-02-17 19:54 METAR KBTV 180054Z 32003KT 10SM SCT250 M11/M17 A3008 RMK AO2 SLP192 T11061167 =
2019-02-17 18:54 METAR KBTV 172354Z 30004KT 10SM SCT250 M10/M16 A3009 RMK AO2 SLP196 4/007
                 T11001161 11067 21100 55009 =
2019-02-17 17:54 METAR KBTV 172254Z 31005KT 10SM SCT150 SCT230 M09/M16 A3008 RMK AO2 SLP194
                 T10891161 =
2019-02-17 16:54 METAR KBTV 172154Z 30005KT 10SM SCT150 BKN230 M08/M16 A3010 RMK AO2 SLP200
                 T10781161 =
2019-02-17 15:54 METAR KBTV 172054Z 35004KT 10SM SCT180 BKN240 M07/M17 A3011 RMK AO2 SLP204
                 T10721167 58014 =
2019-02-17 14:54 METAR KBTV 171954Z 32006KT 10SM BKN150 BKN200 M07/M16 A3015 RMK AO2 SLP215
                 T10721156 =
2019-02-17 13:54 METAR KBTV 171854Z 30006KT 10SM BKN100 M08/M16 A3013 RMK AO2 SLP210 T10781161 =
2019-02-17 12:54 METAR KBTV 171754Z 32007KT 10SM FEW150 M07/M16 A3015 RMK AO2 PRESFR SLP218 4/007
                 T10721161 11072 21128 58018 =
2019-02-17 11:54 METAR KBTV 171654Z 33005KT 10SM FEW150 M08/M16 A3018 RMK AO2 SLP228 T10781161 =
2019-02-17 10:54 METAR KBTV 171554Z VRB03KT 10SM FEW150 M08/M17 A3019 RMK AO2 SLP231 T10831167 =
2019-02-17 09:54 METAR KBTV 171454Z 00000KT 10SM FEW150 M09/M16 A3021 RMK AO2 SLP236 T10941161
                 51008 =
2019-02-17 08:54 METAR KBTV 171354Z 01006KT 10SM FEW150 M12/M17 A3021 RMK AO2 SLP236 T11171167 =
2019-02-17 07:54 METAR KBTV 171254Z 36004KT 10SM SCT150 M12/M17 A3022 RMK AO2 SLP240 T11221167 =
2019-02-17 06:54 METAR KBTV 171154Z 34004KT 10SM FEW090 FEW150 M13/M17 A3018 RMK AO2 SLP228 4/007
                 T11281172 11083 21128 53018 =
2019-02-17 05:54 METAR KBTV 171054Z 36003KT 10SM CLR M12/M17 A3016 RMK AO2 SLP220 T11221172 =

Support USWX by starting your Amazon purchase here.